sensor_id;sensor_type;location;lat;lon;timestamp;temperature;humidity
65584;DHT22;73032;43.592;1.458;2024-02-21T00:00:26;8.09;86.38
65584;DHT22;73032;43.592;1.458;2024-02-21T00:02:53;8.08;85.93
65584;DHT22;73032;43.592;1.458;2024-02-21T00:05:21;8.07;86.34
65584;DHT22;73032;43.592;1.458;2024-02-21T00:07:48;8.05;86.39
65584;DHT22;73032;43.592;1.458;2024-02-21T00:10:14;8.04;86.42
65584;DHT22;73032;43.592;1.458;2024-02-21T00:12:41;8.07;86.54
65584;DHT22;73032;43.592;1.458;2024-02-21T00:15:08;8.04;86.38
65584;DHT22;73032;43.592;1.458;2024-02-21T00:17:35;8.07;86.89
65584;DHT22;73032;43.592;1.458;2024-02-21T00:20:02;8.05;86.85
65584;DHT22;73032;43.592;1.458;2024-02-21T00:22:28;8.05;86.64
65584;DHT22;73032;43.592;1.458;2024-02-21T00:24:57;8.02;86.79
65584;DHT22;73032;43.592;1.458;2024-02-21T00:27:24;8.01;86.94
65584;DHT22;73032;43.592;1.458;2024-02-21T00:29:51;7.99;87.03
65584;DHT22;73032;43.592;1.458;2024-02-21T00:32:17;8.02;87.10
65584;DHT22;73032;43.592;1.458;2024-02-21T00:34:44;8.02;87.01
65584;DHT22;73032;43.592;1.458;2024-02-21T00:37:11;8.02;87.10
65584;DHT22;73032;43.592;1.458;2024-02-21T00:39:38;7.99;87.01
65584;DHT22;73032;43.592;1.458;2024-02-21T00:42:04;8.04;87.05
65584;DHT22;73032;43.592;1.458;2024-02-21T00:44:31;8.04;87.04
65584;DHT22;73032;43.592;1.458;2024-02-21T00:46:58;8.02;86.92
65584;DHT22;73032;43.592;1.458;2024-02-21T00:49:24;8.05;86.75
65584;DHT22;73032;43.592;1.458;2024-02-21T00:51:51;8.05;85.82
65584;DHT22;73032;43.592;1.458;2024-02-21T00:54:18;8.04;86.25
65584;DHT22;73032;43.592;1.458;2024-02-21T00:56:44;8.02;86.63
65584;DHT22;73032;43.592;1.458;2024-02-21T00:59:11;8.07;86.30
65584;DHT22;73032;43.592;1.458;2024-02-21T01:01:38;8.07;86.42
65584;DHT22;73032;43.592;1.458;2024-02-21T01:04:09;8.08;86.81
65584;DHT22;73032;43.592;1.458;2024-02-21T01:06:36;8.11;86.75
65584;DHT22;73032;43.592;1.458;2024-02-21T01:09:03;8.08;85.55
65584;DHT22;73032;43.592;1.458;2024-02-21T01:11:30;8.08;86.16
65584;DHT22;73032;43.592;1.458;2024-02-21T01:13:57;8.11;86.58
65584;DHT22;73032;43.592;1.458;2024-02-21T01:16:24;8.09;86.03
65584;DHT22;73032;43.592;1.458;2024-02-21T01:18:51;8.11;86.53
65584;DHT22;73032;43.592;1.458;2024-02-21T01:21:17;8.14;86.54
65584;DHT22;73032;43.592;1.458;2024-02-21T01:23:44;8.14;86.57
65584;DHT22;73032;43.592;1.458;2024-02-21T01:26:11;8.17;86.38
65584;DHT22;73032;43.592;1.458;2024-02-21T01:28:40;8.18;86.40
65584;DHT22;73032;43.592;1.458;2024-02-21T01:31:07;8.14;86.07
65584;DHT22;73032;43.592;1.458;2024-02-21T01:33:34;8.15;86.35
65584;DHT22;73032;43.592;1.458;2024-02-21T01:36:05;8.11;85.94
65584;DHT22;73032;43.592;1.458;2024-02-21T01:38:35;8.14;86.08
65584;DHT22;73032;43.592;1.458;2024-02-21T01:41:02;8.09;84.79
65584;DHT22;73032;43.592;1.458;2024-02-21T01:43:29;8.04;85.72
65584;DHT22;73032;43.592;1.458;2024-02-21T01:45:56;8.01;85.15
65584;DHT22;73032;43.592;1.458;2024-02-21T01:48:24;7.91;84.35
65584;DHT22;73032;43.592;1.458;2024-02-21T01:50:54;7.88;84.90
65584;DHT22;73032;43.592;1.458;2024-02-21T01:53:34;7.87;85.60
65584;DHT22;73032;43.592;1.458;2024-02-21T01:56:02;7.87;85.58
65584;DHT22;73032;43.592;1.458;2024-02-21T01:58:29;7.81;85.13
65584;DHT22;73032;43.592;1.458;2024-02-21T02:00:57;7.81;84.90
65584;DHT22;73032;43.592;1.458;2024-02-21T02:03:24;7.81;86.20
65584;DHT22;73032;43.592;1.458;2024-02-21T02:05:52;7.80;85.88
65584;DHT22;73032;43.592;1.458;2024-02-21T02:08:19;7.76;85.30
65584;DHT22;73032;43.592;1.458;2024-02-21T02:10:46;7.67;85.27
65584;DHT22;73032;43.592;1.458;2024-02-21T02:13:12;7.66;85.56
65584;DHT22;73032;43.592;1.458;2024-02-21T02:15:41;7.64;86.19
65584;DHT22;73032;43.592;1.458;2024-02-21T02:18:08;7.59;85.82
65584;DHT22;73032;43.592;1.458;2024-02-21T02:20:35;7.56;85.43
65584;DHT22;73032;43.592;1.458;2024-02-21T02:25:34;7.39;85.36
65584;DHT22;73032;43.592;1.458;2024-02-21T02:28:02;7.37;85.69
65584;DHT22;73032;43.592;1.458;2024-02-21T02:30:32;7.37;86.18
65584;DHT22;73032;43.592;1.458;2024-02-21T02:33:00;7.37;86.00
65584;DHT22;73032;43.592;1.458;2024-02-21T02:35:27;7.37;85.96
65584;DHT22;73032;43.592;1.458;2024-02-21T02:37:53;7.40;86.27
65584;DHT22;73032;43.592;1.458;2024-02-21T02:40:20;7.39;86.18
65584;DHT22;73032;43.592;1.458;2024-02-21T02:42:48;7.36;86.20
65584;DHT22;73032;43.592;1.458;2024-02-21T02:45:16;7.33;86.02
65584;DHT22;73032;43.592;1.458;2024-02-21T02:47:44;7.32;86.17
65584;DHT22;73032;43.592;1.458;2024-02-21T02:50:13;7.24;85.95
65584;DHT22;73032;43.592;1.458;2024-02-21T02:52:40;7.18;85.56
65584;DHT22;73032;43.592;1.458;2024-02-21T02:55:07;7.13;86.18
65584;DHT22;73032;43.592;1.458;2024-02-21T02:57:33;7.06;85.82
65584;DHT22;73032;43.592;1.458;2024-02-21T03:00:00;6.99;86.10
65584;DHT22;73032;43.592;1.458;2024-02-21T03:02:27;6.93;86.45
65584;DHT22;73032;43.592;1.458;2024-02-21T03:04:54;6.89;86.24
65584;DHT22;73032;43.592;1.458;2024-02-21T03:07:20;6.87;86.66
65584;DHT22;73032;43.592;1.458;2024-02-21T03:09:47;6.78;86.56
65584;DHT22;73032;43.592;1.458;2024-02-21T03:12:14;6.75;86.71
65584;DHT22;73032;43.592;1.458;2024-02-21T03:14:45;6.72;87.12
65584;DHT22;73032;43.592;1.458;2024-02-21T03:17:12;6.74;87.41
65584;DHT22;73032;43.592;1.458;2024-02-21T03:19:38;6.72;87.80
65584;DHT22;73032;43.592;1.458;2024-02-21T03:22:05;6.69;87.83
65584;DHT22;73032;43.592;1.458;2024-02-21T03:24:32;6.65;87.79
65584;DHT22;73032;43.592;1.458;2024-02-21T03:26:59;6.65;87.92
65584;DHT22;73032;43.592;1.458;2024-02-21T03:29:26;6.64;87.95
65584;DHT22;73032;43.592;1.458;2024-02-21T03:31:52;6.64;88.22
65584;DHT22;73032;43.592;1.458;2024-02-21T03:34:19;6.64;88.31
65584;DHT22;73032;43.592;1.458;2024-02-21T03:36:46;6.59;87.93
65584;DHT22;73032;43.592;1.458;2024-02-21T03:39:12;6.61;88.06
65584;DHT22;73032;43.592;1.458;2024-02-21T03:41:39;6.57;87.97
65584;DHT22;73032;43.592;1.458;2024-02-21T03:44:06;6.57;87.92
65584;DHT22;73032;43.592;1.458;2024-02-21T03:46:32;6.55;87.73
65584;DHT22;73032;43.592;1.458;2024-02-21T03:48:59;6.54;87.95
65584;DHT22;73032;43.592;1.458;2024-02-21T03:51:27;6.49;88.21
65584;DHT22;73032;43.592;1.458;2024-02-21T03:53:54;6.49;88.11
65584;DHT22;73032;43.592;1.458;2024-02-21T03:56:21;6.47;88.11
65584;DHT22;73032;43.592;1.458;2024-02-21T03:58:47;6.47;88.30
65584;DHT22;73032;43.592;1.458;2024-02-21T04:01:15;6.44;88.42
65584;DHT22;73032;43.592;1.458;2024-02-21T04:03:43;6.42;88.39
65584;DHT22;73032;43.592;1.458;2024-02-21T04:06:10;6.42;88.33
65584;DHT22;73032;43.592;1.458;2024-02-21T04:08:39;6.42;88.26
65584;DHT22;73032;43.592;1.458;2024-02-21T04:11:05;6.41;88.25
65584;DHT22;73032;43.592;1.458;2024-02-21T04:13:32;6.38;88.43
65584;DHT22;73032;43.592;1.458;2024-02-21T04:15:59;6.37;88.57
65584;DHT22;73032;43.592;1.458;2024-02-21T04:18:27;6.35;88.65
65584;DHT22;73032;43.592;1.458;2024-02-21T04:20:54;6.33;88.73
65584;DHT22;73032;43.592;1.458;2024-02-21T04:23:21;6.28;88.75
65584;DHT22;73032;43.592;1.458;2024-02-21T04:25:48;6.27;88.81
65584;DHT22;73032;43.592;1.458;2024-02-21T04:28:14;6.30;88.90
65584;DHT22;73032;43.592;1.458;2024-02-21T04:30:41;6.25;88.78
65584;DHT22;73032;43.592;1.458;2024-02-21T04:33:08;6.25;88.98
65584;DHT22;73032;43.592;1.458;2024-02-21T04:35:36;6.21;88.95
65584;DHT22;73032;43.592;1.458;2024-02-21T04:38:03;6.20;88.86
65584;DHT22;73032;43.592;1.458;2024-02-21T04:40:30;6.17;88.92
65584;DHT22;73032;43.592;1.458;2024-02-21T04:42:57;6.14;89.07
65584;DHT22;73032;43.592;1.458;2024-02-21T04:45:24;6.13;89.23
65584;DHT22;73032;43.592;1.458;2024-02-21T04:47:51;6.13;89.16
65584;DHT22;73032;43.592;1.458;2024-02-21T04:50:17;6.09;89.30
65584;DHT22;73032;43.592;1.458;2024-02-21T04:52:44;6.07;89.34
65584;DHT22;73032;43.592;1.458;2024-02-21T04:55:11;6.03;89.08
65584;DHT22;73032;43.592;1.458;2024-02-21T04:57:38;6.03;89.36
65584;DHT22;73032;43.592;1.458;2024-02-21T05:00:06;6.02;89.33
65584;DHT22;73032;43.592;1.458;2024-02-21T05:02:32;6.00;89.26
65584;DHT22;73032;43.592;1.458;2024-02-21T05:04:59;5.94;89.30
65584;DHT22;73032;43.592;1.458;2024-02-21T05:07:26;5.94;89.42
65584;DHT22;73032;43.592;1.458;2024-02-21T05:09:53;5.90;89.44
65584;DHT22;73032;43.592;1.458;2024-02-21T05:12:19;5.87;89.31
65584;DHT22;73032;43.592;1.458;2024-02-21T05:14:47;5.87;89.38
65584;DHT22;73032;43.592;1.458;2024-02-21T05:17:15;5.80;89.59
65584;DHT22;73032;43.592;1.458;2024-02-21T05:19:42;5.80;89.51
65584;DHT22;73032;43.592;1.458;2024-02-21T05:22:09;5.80;89.56
65584;DHT22;73032;43.592;1.458;2024-02-21T05:24:35;5.77;89.70
65584;DHT22;73032;43.592;1.458;2024-02-21T05:27:03;5.77;89.63
65584;DHT22;73032;43.592;1.458;2024-02-21T05:29:29;5.76;89.46
65584;DHT22;73032;43.592;1.458;2024-02-21T05:31:56;5.74;89.53
65584;DHT22;73032;43.592;1.458;2024-02-21T05:34:26;5.74;89.16
65584;DHT22;73032;43.592;1.458;2024-02-21T05:36:53;5.70;89.33
65584;DHT22;73032;43.592;1.458;2024-02-21T05:39:20;5.69;89.55
65584;DHT22;73032;43.592;1.458;2024-02-21T05:41:49;5.69;89.45
65584;DHT22;73032;43.592;1.458;2024-02-21T05:44:17;5.70;89.34
65584;DHT22;73032;43.592;1.458;2024-02-21T05:46:43;5.70;89.16
65584;DHT22;73032;43.592;1.458;2024-02-21T05:49:10;5.69;89.41
65584;DHT22;73032;43.592;1.458;2024-02-21T05:51:37;5.69;89.06
65584;DHT22;73032;43.592;1.458;2024-02-21T05:54:04;5.69;89.40
65584;DHT22;73032;43.592;1.458;2024-02-21T05:56:30;5.66;89.28
65584;DHT22;73032;43.592;1.458;2024-02-21T05:58:57;5.67;89.36
65584;DHT22;73032;43.592;1.458;2024-02-21T06:01:24;5.69;89.33
65584;DHT22;73032;43.592;1.458;2024-02-21T06:03:51;5.66;89.12
65584;DHT22;73032;43.592;1.458;2024-02-21T06:06:18;5.62;89.21
65584;DHT22;73032;43.592;1.458;2024-02-21T06:08:45;5.55;89.22
65584;DHT22;73032;43.592;1.458;2024-02-21T06:11:11;5.55;89.28
65584;DHT22;73032;43.592;1.458;2024-02-21T06:13:39;5.52;89.19
65584;DHT22;73032;43.592;1.458;2024-02-21T06:16:06;5.43;88.99
65584;DHT22;73032;43.592;1.458;2024-02-21T06:18:35;5.40;89.20
65584;DHT22;73032;43.592;1.458;2024-02-21T06:21:02;5.39;89.44
65584;DHT22;73032;43.592;1.458;2024-02-21T06:23:29;5.36;89.36
65584;DHT22;73032;43.592;1.458;2024-02-21T06:25:56;5.35;89.42
65584;DHT22;73032;43.592;1.458;2024-02-21T06:28:23;5.35;89.50
65584;DHT22;73032;43.592;1.458;2024-02-21T06:30:49;5.31;89.45
65584;DHT22;73032;43.592;1.458;2024-02-21T06:33:16;5.31;89.46
65584;DHT22;73032;43.592;1.458;2024-02-21T06:35:43;5.29;89.26
65584;DHT22;73032;43.592;1.458;2024-02-21T06:38:12;5.25;89.25
65584;DHT22;73032;43.592;1.458;2024-02-21T06:40:40;5.22;89.36
65584;DHT22;73032;43.592;1.458;2024-02-21T06:43:07;5.18;89.24
65584;DHT22;73032;43.592;1.458;2024-02-21T06:45:34;5.19;89.50
65584;DHT22;73032;43.592;1.458;2024-02-21T06:48:02;5.22;89.39
65584;DHT22;73032;43.592;1.458;2024-02-21T06:50:28;5.24;89.07
65584;DHT22;73032;43.592;1.458;2024-02-21T06:52:55;5.21;88.75
65584;DHT22;73032;43.592;1.458;2024-02-21T06:55:22;5.18;88.65
65584;DHT22;73032;43.592;1.458;2024-02-21T06:57:49;5.12;88.91
65584;DHT22;73032;43.592;1.458;2024-02-21T07:00:17;5.12;89.02
65584;DHT22;73032;43.592;1.458;2024-02-21T07:02:43;5.12;89.19
65584;DHT22;73032;43.592;1.458;2024-02-21T07:05:10;5.18;89.29
65584;DHT22;73032;43.592;1.458;2024-02-21T07:07:37;5.22;89.60
65584;DHT22;73032;43.592;1.458;2024-02-21T07:10:04;5.29;89.57
65584;DHT22;73032;43.592;1.458;2024-02-21T07:12:31;5.35;89.26
65584;DHT22;73032;43.592;1.458;2024-02-21T07:14:57;5.42;89.32
65584;DHT22;73032;43.592;1.458;2024-02-21T07:17:24;5.46;89.26
65584;DHT22;73032;43.592;1.458;2024-02-21T07:19:51;5.53;89.08
65584;DHT22;73032;43.592;1.458;2024-02-21T07:22:18;5.52;88.47
65584;DHT22;73032;43.592;1.458;2024-02-21T07:24:45;5.53;88.60
65584;DHT22;73032;43.592;1.458;2024-02-21T07:27:14;5.58;88.46
65584;DHT22;73032;43.592;1.458;2024-02-21T07:29:41;5.58;88.42
65584;DHT22;73032;43.592;1.458;2024-02-21T07:32:08;5.66;88.09
65584;DHT22;73032;43.592;1.458;2024-02-21T07:34:35;5.69;87.26
65584;DHT22;73032;43.592;1.458;2024-02-21T07:37:02;5.67;87.11
65584;DHT22;73032;43.592;1.458;2024-02-21T07:39:28;5.74;87.21
65584;DHT22;73032;43.592;1.458;2024-02-21T07:41:55;5.74;87.22
65584;DHT22;73032;43.592;1.458;2024-02-21T07:44:21;5.76;86.75
65584;DHT22;73032;43.592;1.458;2024-02-21T07:46:48;5.76;86.78
65584;DHT22;73032;43.592;1.458;2024-02-21T07:49:15;5.82;86.82
65584;DHT22;73032;43.592;1.458;2024-02-21T07:51:42;5.85;86.65
65584;DHT22;73032;43.592;1.458;2024-02-21T07:54:08;5.97;86.92
65584;DHT22;73032;43.592;1.458;2024-02-21T07:56:40;6.03;86.28
65584;DHT22;73032;43.592;1.458;2024-02-21T07:59:06;6.04;85.85
65584;DHT22;73032;43.592;1.458;2024-02-21T08:01:34;6.07;85.87
65584;DHT22;73032;43.592;1.458;2024-02-21T08:04:01;6.11;85.97
65584;DHT22;73032;43.592;1.458;2024-02-21T08:06:31;6.20;85.85
65584;DHT22;73032;43.592;1.458;2024-02-21T08:08:58;6.27;85.60
65584;DHT22;73032;43.592;1.458;2024-02-21T08:11:24;6.28;84.94
65584;DHT22;73032;43.592;1.458;2024-02-21T08:13:51;6.31;85.03
65584;DHT22;73032;43.592;1.458;2024-02-21T08:16:19;6.31;84.71
65584;DHT22;73032;43.592;1.458;2024-02-21T08:18:46;6.35;84.97
65584;DHT22;73032;43.592;1.458;2024-02-21T08:21:12;6.37;84.69
65584;DHT22;73032;43.592;1.458;2024-02-21T08:23:39;6.40;84.93
65584;DHT22;73032;43.592;1.458;2024-02-21T08:26:06;6.48;84.92
65584;DHT22;73032;43.592;1.458;2024-02-21T08:28:32;6.55;85.17
65584;DHT22;73032;43.592;1.458;2024-02-21T08:30:59;6.58;84.26
65584;DHT22;73032;43.592;1.458;2024-02-21T08:33:26;6.57;84.27
65584;DHT22;73032;43.592;1.458;2024-02-21T08:35:52;6.54;84.29
65584;DHT22;73032;43.592;1.458;2024-02-21T08:38:19;6.52;84.51
65584;DHT22;73032;43.592;1.458;2024-02-21T08:40:46;6.54;84.38
65584;DHT22;73032;43.592;1.458;2024-02-21T08:43:12;6.58;84.53
65584;DHT22;73032;43.592;1.458;2024-02-21T08:45:39;6.72;84.30
65584;DHT22;73032;43.592;1.458;2024-02-21T08:48:06;6.82;83.44
65584;DHT22;73032;43.592;1.458;2024-02-21T08:50:33;6.99;83.56
65584;DHT22;73032;43.592;1.458;2024-02-21T08:53:00;7.22;83.00
65584;DHT22;73032;43.592;1.458;2024-02-21T08:55:28;7.36;82.13
65584;DHT22;73032;43.592;1.458;2024-02-21T08:57:55;7.53;81.05
65584;DHT22;73032;43.592;1.458;2024-02-21T09:00:22;7.76;80.99
65584;DHT22;73032;43.592;1.458;2024-02-21T09:02:54;8.02;80.36
65584;DHT22;73032;43.592;1.458;2024-02-21T09:05:22;8.34;79.28
65584;DHT22;73032;43.592;1.458;2024-02-21T09:07:50;8.62;78.19
65584;DHT22;73032;43.592;1.458;2024-02-21T09:10:18;8.99;77.36
65584;DHT22;73032;43.592;1.458;2024-02-21T09:12:44;9.55;76.93
65584;DHT22;73032;43.592;1.458;2024-02-21T09:15:11;10.38;76.42
65584;DHT22;73032;43.592;1.458;2024-02-21T09:17:38;11.27;68.84
65584;DHT22;73032;43.592;1.458;2024-02-21T09:20:06;12.15;68.23
65584;DHT22;73032;43.592;1.458;2024-02-21T09:22:34;13.15;67.06
65584;DHT22;73032;43.592;1.458;2024-02-21T09:25:02;14.02;64.74
65584;DHT22;73032;43.592;1.458;2024-02-21T09:27:30;14.76;60.27
65584;DHT22;73032;43.592;1.458;2024-02-21T09:29:57;14.93;56.63
65584;DHT22;73032;43.592;1.458;2024-02-21T09:32:23;15.59;56.34
65584;DHT22;73032;43.592;1.458;2024-02-21T09:34:50;16.02;55.36
65584;DHT22;73032;43.592;1.458;2024-02-21T09:37:18;15.95;55.08
65584;DHT22;73032;43.592;1.458;2024-02-21T09:39:44;15.37;56.32
65584;DHT22;73032;43.592;1.458;2024-02-21T09:42:12;15.04;56.92
65584;DHT22;73032;43.592;1.458;2024-02-21T09:44:39;15.11;59.36
65584;DHT22;73032;43.592;1.458;2024-02-21T09:47:19;15.37;59.38
65584;DHT22;73032;43.592;1.458;2024-02-21T09:49:49;15.85;57.70
65584;DHT22;73032;43.592;1.458;2024-02-21T09:52:16;16.24;54.66
65584;DHT22;73032;43.592;1.458;2024-02-21T09:54:44;16.98;55.14
65584;DHT22;73032;43.592;1.458;2024-02-21T09:57:12;17.21;50.16
65584;DHT22;73032;43.592;1.458;2024-02-21T09:59:39;17.42;50.65
65584;DHT22;73032;43.592;1.458;2024-02-21T10:02:08;17.73;48.62
65584;DHT22;73032;43.592;1.458;2024-02-21T10:04:35;17.65;48.77
65584;DHT22;73032;43.592;1.458;2024-02-21T10:07:03;17.71;49.56
65584;DHT22;73032;43.592;1.458;2024-02-21T10:09:30;18.00;46.81
65584;DHT22;73032;43.592;1.458;2024-02-21T10:12:11;17.83;46.56
65584;DHT22;73032;43.592;1.458;2024-02-21T10:14:39;17.46;47.48
65584;DHT22;73032;43.592;1.458;2024-02-21T10:17:07;17.31;47.66
65584;DHT22;73032;43.592;1.458;2024-02-21T10:19:37;17.43;48.42
65584;DHT22;73032;43.592;1.458;2024-02-21T10:22:08;17.38;47.92
65584;DHT22;73032;43.592;1.458;2024-02-21T10:24:35;18.03;46.88
65584;DHT22;73032;43.592;1.458;2024-02-21T10:27:06;18.78;45.19
65584;DHT22;73032;43.592;1.458;2024-02-21T10:29:38;18.95;44.30
65584;DHT22;73032;43.592;1.458;2024-02-21T10:32:10;18.43;44.45
65584;DHT22;73032;43.592;1.458;2024-02-21T10:34:38;17.87;46.17
65584;DHT22;73032;43.592;1.458;2024-02-21T10:37:07;18.03;46.66
65584;DHT22;73032;43.592;1.458;2024-02-21T10:39:41;17.72;45.96
65584;DHT22;73032;43.592;1.458;2024-02-21T10:42:11;17.00;47.20
65584;DHT22;73032;43.592;1.458;2024-02-21T10:44:39;16.67;47.71
65584;DHT22;73032;43.592;1.458;2024-02-21T10:47:08;16.19;48.61
65584;DHT22;73032;43.592;1.458;2024-02-21T10:49:40;15.82;49.83
65584;DHT22;73032;43.592;1.458;2024-02-21T10:52:15;15.65;50.51
65584;DHT22;73032;43.592;1.458;2024-02-21T10:54:53;15.47;51.60
65584;DHT22;73032;43.592;1.458;2024-02-21T10:57:23;15.20;51.15
65584;DHT22;73032;43.592;1.458;2024-02-21T10:59:50;15.27;52.05
65584;DHT22;73032;43.592;1.458;2024-02-21T11:02:17;15.21;51.90
65584;DHT22;73032;43.592;1.458;2024-02-21T11:04:46;15.15;51.29
65584;DHT22;73032;43.592;1.458;2024-02-21T11:07:13;15.15;49.87
65584;DHT22;73032;43.592;1.458;2024-02-21T11:09:51;15.17;50.25
65584;DHT22;73032;43.592;1.458;2024-02-21T11:12:21;15.20;50.68
65584;DHT22;73032;43.592;1.458;2024-02-21T11:14:49;15.07;51.84
65584;DHT22;73032;43.592;1.458;2024-02-21T11:17:16;15.18;49.92
65584;DHT22;73032;43.592;1.458;2024-02-21T11:19:44;15.17;48.16
65584;DHT22;73032;43.592;1.458;2024-02-21T11:22:16;15.12;48.13
65584;DHT22;73032;43.592;1.458;2024-02-21T11:24:43;15.11;47.60
65584;DHT22;73032;43.592;1.458;2024-02-21T11:27:21;15.15;48.39
65584;DHT22;73032;43.592;1.458;2024-02-21T11:29:49;15.18;48.23
65584;DHT22;73032;43.592;1.458;2024-02-21T11:32:20;15.28;48.42
65584;DHT22;73032;43.592;1.458;2024-02-21T11:35:03;15.31;47.22
65584;DHT22;73032;43.592;1.458;2024-02-21T11:37:35;15.34;46.43
65584;DHT22;73032;43.592;1.458;2024-02-21T11:40:05;15.45;46.52
65584;DHT22;73032;43.592;1.458;2024-02-21T11:42:38;15.49;45.40
65584;DHT22;73032;43.592;1.458;2024-02-21T11:45:06;15.52;44.40
65584;DHT22;73032;43.592;1.458;2024-02-21T11:47:33;15.73;44.25
65584;DHT22;73032;43.592;1.458;2024-02-21T11:50:00;16.13;43.39
65584;DHT22;73032;43.592;1.458;2024-02-21T11:52:27;16.17;43.53
65584;DHT22;73032;43.592;1.458;2024-02-21T11:54:55;16.73;43.51
65584;DHT22;73032;43.592;1.458;2024-02-21T11:57:30;17.12;42.59
65584;DHT22;73032;43.592;1.458;2024-02-21T11:59:57;17.66;41.89
65584;DHT22;73032;43.592;1.458;2024-02-21T12:02:27;17.86;40.42
65584;DHT22;73032;43.592;1.458;2024-02-21T12:04:55;17.99;40.64
65584;DHT22;73032;43.592;1.458;2024-02-21T12:07:22;17.69;39.96
65584;DHT22;73032;43.592;1.458;2024-02-21T12:09:51;17.36;41.18
65584;DHT22;73032;43.592;1.458;2024-02-21T12:12:20;17.43;41.66
65584;DHT22;73032;43.592;1.458;2024-02-21T12:14:55;17.32;42.69
65584;DHT22;73032;43.592;1.458;2024-02-21T12:17:22;17.38;41.44
65584;DHT22;73032;43.592;1.458;2024-02-21T12:19:50;17.43;40.64
65584;DHT22;73032;43.592;1.458;2024-02-21T12:22:20;17.42;40.65
65584;DHT22;73032;43.592;1.458;2024-02-21T12:24:47;17.51;41.27
65584;DHT22;73032;43.592;1.458;2024-02-21T12:27:15;17.56;41.73
65584;DHT22;73032;43.592;1.458;2024-02-21T12:29:42;17.35;41.60
65584;DHT22;73032;43.592;1.458;2024-02-21T12:32:08;17.36;42.00
65584;DHT22;73032;43.592;1.458;2024-02-21T12:34:35;17.32;42.76
65584;DHT22;73032;43.592;1.458;2024-02-21T12:37:18;17.21;43.04
65584;DHT22;73032;43.592;1.458;2024-02-21T12:39:47;17.12;43.05
65584;DHT22;73032;43.592;1.458;2024-02-21T12:42:14;17.12;43.55
65584;DHT22;73032;43.592;1.458;2024-02-21T12:44:40;17.30;43.30
65584;DHT22;73032;43.592;1.458;2024-02-21T12:47:08;17.45;43.50
65584;DHT22;73032;43.592;1.458;2024-02-21T12:49:35;17.49;43.19
65584;DHT22;73032;43.592;1.458;2024-02-21T12:52:03;17.42;43.17
65584;DHT22;73032;43.592;1.458;2024-02-21T12:54:30;17.52;43.22
65584;DHT22;73032;43.592;1.458;2024-02-21T12:56:58;17.43;42.76
65584;DHT22;73032;43.592;1.458;2024-02-21T12:59:29;17.43;42.65
65584;DHT22;73032;43.592;1.458;2024-02-21T13:01:56;17.43;43.06
65584;DHT22;73032;43.592;1.458;2024-02-21T13:04:23;17.42;42.18
65584;DHT22;73032;43.592;1.458;2024-02-21T13:06:54;17.62;42.59
65584;DHT22;73032;43.592;1.458;2024-02-21T13:09:22;17.71;42.24
65584;DHT22;73032;43.592;1.458;2024-02-21T13:11:49;17.81;41.91
65584;DHT22;73032;43.592;1.458;2024-02-21T13:14:18;17.69;42.13
65584;DHT22;73032;43.592;1.458;2024-02-21T13:16:44;17.63;42.88
65584;DHT22;73032;43.592;1.458;2024-02-21T13:19:11;17.79;42.72
65584;DHT22;73032;43.592;1.458;2024-02-21T13:21:40;18.20;42.88
65584;DHT22;73032;43.592;1.458;2024-02-21T13:24:07;18.41;42.22
65584;DHT22;73032;43.592;1.458;2024-02-21T13:26:34;18.68;41.74
65584;DHT22;73032;43.592;1.458;2024-02-21T13:29:01;19.10;40.87
65584;DHT22;73032;43.592;1.458;2024-02-21T13:31:28;19.15;40.38
65584;DHT22;73032;43.592;1.458;2024-02-21T13:33:55;19.07;40.86
65584;DHT22;73032;43.592;1.458;2024-02-21T13:36:22;19.35;40.53
65584;DHT22;73032;43.592;1.458;2024-02-21T13:38:48;19.41;40.35
65584;DHT22;73032;43.592;1.458;2024-02-21T13:41:15;19.48;39.85
65584;DHT22;73032;43.592;1.458;2024-02-21T13:43:42;19.42;40.14
65584;DHT22;73032;43.592;1.458;2024-02-21T13:46:09;19.19;40.05
65584;DHT22;73032;43.592;1.458;2024-02-21T13:48:38;19.28;40.18
65584;DHT22;73032;43.592;1.458;2024-02-21T13:51:05;19.34;40.95
65584;DHT22;73032;43.592;1.458;2024-02-21T13:53:32;19.45;40.89
65584;DHT22;73032;43.592;1.458;2024-02-21T13:56:00;19.24;40.76
65584;DHT22;73032;43.592;1.458;2024-02-21T13:58:27;19.28;40.69
65584;DHT22;73032;43.592;1.458;2024-02-21T14:00:54;19.31;40.42
65584;DHT22;73032;43.592;1.458;2024-02-21T14:03:21;19.44;40.62
65584;DHT22;73032;43.592;1.458;2024-02-21T14:05:48;19.38;40.29
65584;DHT22;73032;43.592;1.458;2024-02-21T14:08:17;19.61;40.49
65584;DHT22;73032;43.592;1.458;2024-02-21T14:10:44;19.72;40.57
65584;DHT22;73032;43.592;1.458;2024-02-21T14:13:12;19.73;40.02
65584;DHT22;73032;43.592;1.458;2024-02-21T14:15:41;19.58;38.76
65584;DHT22;73032;43.592;1.458;2024-02-21T14:18:08;19.48;39.10
65584;DHT22;73032;43.592;1.458;2024-02-21T14:20:37;19.36;40.40
65584;DHT22;73032;43.592;1.458;2024-02-21T14:23:03;19.22;41.53
65584;DHT22;73032;43.592;1.458;2024-02-21T14:25:31;18.97;41.96
65584;DHT22;73032;43.592;1.458;2024-02-21T14:28:00;19.05;41.95
65584;DHT22;73032;43.592;1.458;2024-02-21T14:30:27;19.05;41.24
65584;DHT22;73032;43.592;1.458;2024-02-21T14:32:54;19.01;40.29
65584;DHT22;73032;43.592;1.458;2024-02-21T14:35:21;19.04;40.67
65584;DHT22;73032;43.592;1.458;2024-02-21T14:37:48;19.11;40.57
65584;DHT22;73032;43.592;1.458;2024-02-21T14:40:19;19.04;39.77
65584;DHT22;73032;43.592;1.458;2024-02-21T14:42:47;19.16;40.46
65584;DHT22;73032;43.592;1.458;2024-02-21T14:45:14;19.31;40.13
65584;DHT22;73032;43.592;1.458;2024-02-21T14:47:40;19.14;38.77
65584;DHT22;73032;43.592;1.458;2024-02-21T14:50:07;19.08;37.97
65584;DHT22;73032;43.592;1.458;2024-02-21T14:52:35;19.11;38.71
65584;DHT22;73032;43.592;1.458;2024-02-21T14:55:03;19.14;38.77
65584;DHT22;73032;43.592;1.458;2024-02-21T14:57:31;19.18;38.50
65584;DHT22;73032;43.592;1.458;2024-02-21T14:59:58;19.12;38.68
65584;DHT22;73032;43.592;1.458;2024-02-21T15:02:26;19.02;38.88
65584;DHT22;73032;43.592;1.458;2024-02-21T15:04:55;19.14;39.79
65584;DHT22;73032;43.592;1.458;2024-02-21T15:07:22;19.14;39.43
65584;DHT22;73032;43.592;1.458;2024-02-21T15:09:53;19.31;39.99
65584;DHT22;73032;43.592;1.458;2024-02-21T15:12:19;19.45;39.45
65584;DHT22;73032;43.592;1.458;2024-02-21T15:14:46;19.42;39.68
65584;DHT22;73032;43.592;1.458;2024-02-21T15:17:13;19.29;40.13
65584;DHT22;73032;43.592;1.458;2024-02-21T15:19:40;19.10;39.71
65584;DHT22;73032;43.592;1.458;2024-02-21T15:22:11;19.00;40.76
65584;DHT22;73032;43.592;1.458;2024-02-21T15:24:39;18.91;41.31
65584;DHT22;73032;43.592;1.458;2024-02-21T15:27:06;18.81;41.99
65584;DHT22;73032;43.592;1.458;2024-02-21T15:29:35;19.01;42.24
65584;DHT22;73032;43.592;1.458;2024-02-21T15:32:05;19.04;42.71
65584;DHT22;73032;43.592;1.458;2024-02-21T15:34:32;18.81;41.60
65584;DHT22;73032;43.592;1.458;2024-02-21T15:36:59;18.57;41.77
65584;DHT22;73032;43.592;1.458;2024-02-21T15:39:27;18.39;42.44
65584;DHT22;73032;43.592;1.458;2024-02-21T15:41:54;18.26;42.57
65584;DHT22;73032;43.592;1.458;2024-02-21T15:44:22;18.05;42.35